Time;durP1;ratioP1;P1;durP2;ratioP2;P2;SDS_P1;SDS_P2;PMS_P1;PMS_P2;Temp;Humidity;BMP_temperature;BMP_pressure;BME280_temperature;BME280_humidity;BME280_pressure;Samples;Min_cycle;Max_cycle;Signal;HPM_P1;HPM_P2
2022/03/04 00:00:47;;;;;;;4.10;2.38;;;20.10;43.80;;;;;;5019346;28;20049;-58
2022/03/04 00:03:13;;;;;;;4.55;2.53;;;20.10;43.70;;;;;;5018187;28;20033;-58
2022/03/04 00:05:39;;;;;;;4.00;2.40;;;20.10;43.80;;;;;;5019332;28;20081;-58
2022/03/04 00:08:05;;;;;;;4.03;2.30;;;20.10;43.80;;;;;;5017980;28;20187;-58
2022/03/04 00:10:31;;;;;;;4.70;2.60;;;20.00;43.80;;;;;;5019318;28;20046;-58
2022/03/04 00:12:57;;;;;;;4.15;2.42;;;20.00;43.70;;;;;;5019123;28;20169;-58
2022/03/04 00:15:22;;;;;;;4.82;2.33;;;20.10;43.70;;;;;;5018056;28;20519;-58
2022/03/04 00:17:48;;;;;;;4.00;2.17;;;20.00;43.80;;;;;;5019233;28;20049;-58
2022/03/04 00:20:13;;;;;;;3.03;1.88;;;20.00;43.80;;;;;;5018705;28;20061;-58
2022/03/04 00:22:39;;;;;;;4.82;2.20;;;20.00;43.80;;;;;;5018533;28;20045;-58
2022/03/04 00:25:05;;;;;;;4.47;2.60;;;20.00;43.70;;;;;;5018681;28;20383;-58
2022/03/04 00:27:30;;;;;;;4.88;2.38;;;20.00;43.80;;;;;;5018481;28;20410;-58
2022/03/04 00:29:56;;;;;;;3.75;2.38;;;20.00;43.80;;;;;;5018209;28;20470;-58
2022/03/04 00:32:21;;;;;;;3.95;2.10;;;20.00;43.80;;;;;;5018606;28;20076;-58
2022/03/04 00:34:47;;;;;;;4.60;2.80;;;19.90;43.80;;;;;;5019046;28;20133;-58
2022/03/04 00:37:12;;;;;;;4.38;2.53;;;19.90;43.80;;;;;;5017971;28;20050;-58
2022/03/04 00:39:38;;;;;;;4.45;2.30;;;19.90;43.80;;;;;;5018974;28;20038;-58
2022/03/04 00:42:04;;;;;;;4.97;2.60;;;19.90;43.80;;;;;;5018677;28;20065;-58
2022/03/04 00:44:29;;;;;;;3.83;2.22;;;19.90;43.80;;;;;;5018023;28;20154;-58
2022/03/04 00:46:55;;;;;;;3.70;2.15;;;19.90;43.80;;;;;;5015974;28;20049;-58
2022/03/04 00:49:20;;;;;;;4.35;2.28;;;19.90;43.80;;;;;;5015456;28;20042;-58
2022/03/04 00:51:46;;;;;;;3.88;2.30;;;19.90;43.80;;;;;;5015105;28;20119;-58
2022/03/04 00:54:11;;;;;;;3.55;1.95;;;19.90;43.80;;;;;;5015567;28;20077;-58
2022/03/04 00:56:37;;;;;;;3.53;2.03;;;19.90;43.80;;;;;;5015766;28;20125;-58
2022/03/04 00:59:03;;;;;;;4.07;2.17;;;19.80;43.70;;;;;;5014982;28;20137;-58
2022/03/04 01:01:28;;;;;;;3.70;2.05;;;19.90;43.80;;;;;;5015555;28;20132;-58
2022/03/04 01:03:54;;;;;;;4.18;2.10;;;19.90;43.80;;;;;;5015474;28;20045;-58
2022/03/04 01:06:19;;;;;;;3.65;1.85;;;19.80;43.80;;;;;;5014478;28;20053;-58
2022/03/04 01:08:45;;;;;;;3.03;1.85;;;19.80;43.80;;;;;;5015125;28;20409;-58
2022/03/04 01:11:10;;;;;;;3.05;1.75;;;19.80;43.80;;;;;;5014502;28;20046;-59
2022/03/04 01:13:36;;;;;;;3.58;2.17;;;19.80;43.80;;;;;;5015251;28;20397;-58
2022/03/04 01:16:01;;;;;;;3.50;1.90;;;19.70;43.80;;;;;;5015369;28;20093;-58
2022/03/04 01:18:27;;;;;;;5.18;2.20;;;19.80;43.80;;;;;;5013921;28;20038;-59
2022/03/04 01:20:52;;;;;;;3.35;2.15;;;19.80;43.80;;;;;;5015332;28;20050;-58
2022/03/04 01:23:18;;;;;;;2.55;1.85;;;19.80;43.80;;;;;;5014701;28;20045;-58
2022/03/04 01:25:43;;;;;;;3.30;1.80;;;19.80;43.80;;;;;;5014239;28;20502;-58
2022/03/04 01:28:09;;;;;;;3.28;1.77;;;19.80;43.90;;;;;;5014457;28;20128;-58
2022/03/04 01:30:35;;;;;;;3.45;1.92;;;19.70;43.80;;;;;;5014799;28;20052;-58
2022/03/04 01:33:00;;;;;;;3.33;1.80;;;19.70;43.80;;;;;;5014051;28;20046;-58
2022/03/04 01:35:26;;;;;;;3.67;2.08;;;19.70;43.80;;;;;;5014729;28;20117;-59
2022/03/04 01:37:51;;;;;;;3.33;1.95;;;19.70;43.80;;;;;;5014933;28;20200;-58
2022/03/04 01:40:17;;;;;;;3.95;2.00;;;19.70;43.90;;;;;;5013819;28;20042;-58
2022/03/04 01:42:42;;;;;;;4.00;1.83;;;19.70;43.90;;;;;;5014610;28;20133;-58
2022/03/04 01:45:09;;;;;;;3.45;1.83;;;19.70;43.90;;;;;;5014220;28;20033;-58
2022/03/04 01:47:35;;;;;;;3.28;1.70;;;19.70;43.90;;;;;;5013760;28;20108;-58
2022/03/04 01:50:01;;;;;;;3.80;1.83;;;19.70;43.90;;;;;;5014421;28;20053;-58
2022/03/04 01:52:27;;;;;;;4.10;2.20;;;19.70;43.80;;;;;;5014057;28;20478;-58
2022/03/04 01:54:52;;;;;;;4.97;2.22;;;19.60;43.80;;;;;;5013752;28;20053;-58
2022/03/04 01:57:18;;;;;;;3.55;2.30;;;19.60;43.80;;;;;;5013556;28;20057;-58
2022/03/04 01:59:43;;;;;;;4.68;1.90;;;19.60;43.80;;;;;;5013696;28;20196;-58
2022/03/04 02:02:10;;;;;;;2.85;2.00;;;19.60;43.90;;;;;;5012894;28;20038;-58
2022/03/04 02:04:36;;;;;;;3.10;1.80;;;19.60;43.90;;;;;;5014598;28;20120;-58
2022/03/04 02:07:01;;;;;;;2.65;1.65;;;19.60;43.80;;;;;;5014438;28;20050;-58
2022/03/04 02:09:27;;;;;;;3.65;1.92;;;19.60;43.90;;;;;;5012872;28;20054;-59
2022/03/04 02:11:52;;;;;;;3.90;1.98;;;19.50;43.90;;;;;;5014329;28;20054;-58
2022/03/04 02:14:18;;;;;;;3.50;1.98;;;19.60;44.00;;;;;;5013673;28;20387;-59
2022/03/04 02:16:44;;;;;;;3.53;1.80;;;19.60;44.00;;;;;;5013214;28;20413;-58
2022/03/04 02:19:09;;;;;;;3.30;1.75;;;19.60;43.90;;;;;;5012717;28;20049;-58
2022/03/04 02:21:35;;;;;;;3.08;1.50;;;19.50;43.90;;;;;;5013396;28;20047;-58
2022/03/04 02:24:00;;;;;;;3.17;1.83;;;19.50;43.90;;;;;;5014137;28;20050;-58
2022/03/04 02:26:26;;;;;;;3.28;1.80;;;19.50;43.90;;;;;;5013696;28;20080;-58
2022/03/04 02:28:52;;;;;;;3.72;2.00;;;19.50;44.00;;;;;;5012874;28;20103;-58
2022/03/04 02:31:18;;;;;;;4.00;1.73;;;19.50;44.00;;;;;;5013388;28;20081;-58
2022/03/04 02:33:44;;;;;;;2.83;1.65;;;19.50;43.90;;;;;;5014011;28;20038;-58
2022/03/04 02:36:09;;;;;;;3.97;1.90;;;19.50;44.00;;;;;;5013012;28;20397;-58
2022/03/04 02:38:35;;;;;;;3.13;1.80;;;19.50;44.00;;;;;;5013999;28;20085;-58
2022/03/04 02:41:00;;;;;;;3.13;1.63;;;19.50;44.00;;;;;;5013904;28;20069;-58
2022/03/04 02:43:26;;;;;;;2.60;1.52;;;19.50;44.00;;;;;;5012686;28;20104;-58
2022/03/04 02:45:52;;;;;;;2.22;1.55;;;19.50;44.00;;;;;;5013142;28;20081;-58
2022/03/04 02:48:18;;;;;;;3.42;1.90;;;19.50;43.90;;;;;;5013241;28;20405;-58
2022/03/04 02:50:43;;;;;;;3.40;1.67;;;19.50;44.00;;;;;;5012902;28;20050;-58
2022/03/04 02:53:09;;;;;;;2.95;1.70;;;19.50;44.00;;;;;;5013200;28;20453;-58
2022/03/04 02:55:34;;;;;;;2.95;1.70;;;19.50;43.90;;;;;;5013406;28;20037;-58
2022/03/04 02:58:00;;;;;;;3.08;2.05;;;19.50;43.70;;;;;;5012795;28;20057;-58
2022/03/04 03:00:26;;;;;;;3.10;1.80;;;19.50;43.80;;;;;;5013017;28;20053;-58
2022/03/04 03:02:51;;;;;;;3.72;1.83;;;19.50;43.80;;;;;;5011485;28;20041;-58
2022/03/04 03:05:17;;;;;;;2.50;1.50;;;19.50;43.90;;;;;;5011684;28;20149;-58
2022/03/04 03:07:42;;;;;;;3.35;1.85;;;19.50;43.80;;;;;;5013055;28;20057;-58
2022/03/04 03:10:09;;;;;;;3.45;1.95;;;19.50;43.80;;;;;;5012466;28;20037;-58
2022/03/04 03:12:34;;;;;;;1.95;1.25;;;19.50;43.70;;;;;;5012621;28;20083;-58
2022/03/04 03:15:00;;;;;;;3.00;1.70;;;19.50;43.70;;;;;;5013032;28;20117;-58
2022/03/04 03:17:25;;;;;;;2.78;1.63;;;19.50;43.80;;;;;;5013032;28;20129;-58
2022/03/04 03:19:51;;;;;;;2.85;1.67;;;19.50;43.70;;;;;;5012599;28;20037;-58
2022/03/04 03:22:18;;;;;;;3.20;1.80;;;19.50;43.70;;;;;;5012987;28;20509;-58
2022/03/04 03:24:44;;;;;;;2.88;1.70;;;19.50;43.70;;;;;;5012991;28;20082;-58
2022/03/04 03:27:10;;;;;;;3.35;1.80;;;19.60;43.70;;;;;;5010726;28;20123;-57
2022/03/04 03:29:36;;;;;;;3.40;1.88;;;19.50;43.50;;;;;;5013061;28;20066;-57
2022/03/04 03:32:01;;;;;;;2.97;1.80;;;19.60;43.60;;;;;;5010924;28;20125;-57
2022/03/04 03:34:27;;;;;;;3.15;1.88;;;19.60;43.60;;;;;;5012829;28;20042;-58
2022/03/04 03:36:52;;;;;;;4.15;2.13;;;19.60;43.60;;;;;;5013114;28;20570;-57
2022/03/04 03:39:18;;;;;;;4.20;2.20;;;19.60;43.60;;;;;;5012090;28;20038;-58
2022/03/04 03:41:43;;;;;;;2.70;1.60;;;19.60;43.60;;;;;;5013076;28;20049;-59
2022/03/04 03:44:09;;;;;;;3.05;1.70;;;19.60;43.50;;;;;;5012537;28;20053;-58
2022/03/04 03:46:35;;;;;;;2.55;1.50;;;19.60;43.50;;;;;;5012309;28;20124;-58
2022/03/04 03:49:00;;;;;;;3.33;1.80;;;19.60;43.50;;;;;;5012961;28;20046;-58
2022/03/04 03:51:26;;;;;;;2.70;1.70;;;19.70;43.50;;;;;;5012470;28;20072;-58
2022/03/04 03:53:51;;;;;;;2.55;1.50;;;19.60;43.40;;;;;;5012088;28;20050;-58
2022/03/04 03:56:17;;;;;;;2.05;1.35;;;19.70;43.50;;;;;;5012685;28;20038;-58
2022/03/04 03:58:42;;;;;;;3.33;1.75;;;19.70;43.50;;;;;;5012721;28;20057;-58
2022/03/04 04:01:08;;;;;;;3.05;1.75;;;19.70;43.50;;;;;;5011854;28;20049;-58
2022/03/04 04:03:33;;;;;;;2.45;1.50;;;19.70;43.40;;;;;;5012838;28;20478;-58
2022/03/04 04:05:59;;;;;;;2.58;1.30;;;19.70;43.40;;;;;;5012723;28;20046;-58
2022/03/04 04:08:24;;;;;;;2.70;1.50;;;19.70;43.40;;;;;;5011335;28;20053;-58
2022/03/04 04:10:50;;;;;;;4.25;2.03;;;19.70;43.40;;;;;;5011186;28;20053;-58
2022/03/04 04:13:15;;;;;;;3.05;1.55;;;19.70;43.40;;;;;;5012184;28;20072;-58
2022/03/04 04:15:41;;;;;;;2.92;1.63;;;19.70;43.40;;;;;;5012109;28;20037;-58
2022/03/04 04:18:06;;;;;;;4.60;1.77;;;19.80;43.50;;;;;;5012520;28;20050;-58
2022/03/04 04:20:32;;;;;;;2.85;1.80;;;19.70;43.30;;;;;;5013799;28;20053;-58
2022/03/04 04:22:57;;;;;;;2.85;1.70;;;19.70;43.30;;;;;;5015453;28;20049;-58
2022/03/04 04:25:23;;;;;;;3.00;1.48;;;19.70;43.30;;;;;;5016118;28;20089;-59
2022/03/04 04:27:49;;;;;;;2.88;1.88;;;19.80;43.30;;;;;;5015780;28;20042;-58
2022/03/04 04:30:14;;;;;;;3.17;1.70;;;19.80;43.30;;;;;;5015242;28;20041;-58
2022/03/04 04:32:40;;;;;;;3.90;2.10;;;19.80;43.30;;;;;;5016210;28;20425;-58
2022/03/04 04:35:06;;;;;;;3.10;1.85;;;19.80;43.30;;;;;;5015858;28;20077;-58
2022/03/04 04:37:31;;;;;;;2.38;1.33;;;19.80;43.30;;;;;;5015588;28;20088;-58
2022/03/04 04:39:57;;;;;;;3.65;1.38;;;19.80;43.20;;;;;;5016110;28;20046;-58
2022/03/04 04:42:22;;;;;;;3.28;1.88;;;19.80;43.30;;;;;;5014832;28;20049;-58
2022/03/04 04:44:48;;;;;;;3.72;1.73;;;19.80;43.30;;;;;;5015998;28;20041;-58
2022/03/04 04:47:13;;;;;;;2.85;1.50;;;19.80;43.20;;;;;;5015571;28;20049;-58
2022/03/04 04:49:39;;;;;;;2.92;1.75;;;19.80;43.20;;;;;;5014936;28;20092;-58
2022/03/04 04:52:08;;;;;;;2.72;1.63;;;19.80;43.20;;;;;;5015548;28;20041;-58
2022/03/04 04:54:34;;;;;;;3.58;2.00;;;19.90;43.20;;;;;;5015676;28;20088;-58
2022/03/04 04:56:59;;;;;;;3.58;1.77;;;19.80;43.20;;;;;;5015026;28;20038;-58
2022/03/04 04:59:25;;;;;;;2.65;1.77;;;19.90;43.30;;;;;;5014995;28;20169;-58
2022/03/04 05:01:50;;;;;;;2.30;1.70;;;19.90;43.20;;;;;;5009320;28;20046;-58
2022/03/04 05:04:16;;;;;;;2.67;1.65;;;19.90;43.20;;;;;;5010979;28;20046;-58
2022/03/04 05:06:41;;;;;;;3.53;1.90;;;19.90;43.20;;;;;;5014901;28;20128;-58
2022/03/04 05:09:07;;;;;;;3.10;1.70;;;19.90;43.20;;;;;;5014888;28;20425;-58
2022/03/04 05:11:33;;;;;;;3.33;1.80;;;19.90;43.20;;;;;;5014774;28;20084;-58
2022/03/04 05:13:58;;;;;;;4.07;1.85;;;19.90;43.20;;;;;;5015209;28;20041;-58
2022/03/04 05:16:24;;;;;;;4.13;2.05;;;19.90;43.10;;;;;;5014879;28;20045;-58
2022/03/04 05:18:49;;;;;;;2.63;1.67;;;19.90;43.10;;;;;;5014593;28;20045;-58
2022/03/04 05:21:15;;;;;;;3.67;2.03;;;19.90;43.10;;;;;;5015006;28;20046;-58
2022/03/04 05:23:59;;;;;;;2.97;1.70;;;19.90;43.10;;;;;;5015487;28;20445;-58
2022/03/04 05:26:28;;;;;;;3.17;1.50;;;19.90;43.10;;;;;;5013796;28;20057;-58
2022/03/04 05:28:54;;;;;;;3.15;1.58;;;19.90;43.10;;;;;;5015089;28;20049;-58
2022/03/04 05:31:19;;;;;;;3.22;1.73;;;19.90;43.00;;;;;;5014301;28;20096;-58
2022/03/04 05:33:45;;;;;;;3.00;1.80;;;19.90;43.00;;;;;;5013975;28;20132;-58
2022/03/04 05:36:10;;;;;;;2.38;1.42;;;19.90;43.00;;;;;;5014773;28;20068;-58
2022/03/04 05:38:36;;;;;;;2.67;1.42;;;19.90;43.00;;;;;;5013970;28;20045;-58
2022/03/04 05:41:01;;;;;;;3.28;2.00;;;19.90;43.00;;;;;;5014596;28;20046;-58
2022/03/04 05:43:27;;;;;;;3.15;1.88;;;19.90;42.90;;;;;;5014457;28;20046;-58
2022/03/04 05:45:52;;;;;;;3.05;1.55;;;20.00;43.00;;;;;;5013751;28;20054;-58
2022/03/04 05:48:18;;;;;;;3.20;1.77;;;20.00;43.00;;;;;;5014277;28;20573;-58
2022/03/04 05:50:43;;;;;;;4.45;1.70;;;19.90;42.90;;;;;;5014569;28;20125;-58
2022/03/04 05:53:09;;;;;;;2.75;1.73;;;20.00;42.90;;;;;;5013682;28;20058;-58
2022/03/04 05:55:35;;;;;;;2.80;1.40;;;20.00;42.90;;;;;;5014492;28;20128;-58
2022/03/04 05:58:00;;;;;;;2.97;1.58;;;20.00;42.90;;;;;;5014540;28;20117;-57
2022/03/04 06:00:27;;;;;;;2.67;1.50;;;20.00;42.90;;;;;;5013540;28;20053;-58
2022/03/04 06:02:52;;;;;;;3.03;1.88;;;20.00;42.90;;;;;;5014574;28;20117;-57
2022/03/04 06:05:18;;;;;;;2.17;1.60;;;20.00;42.80;;;;;;5014013;28;20586;-58
2022/03/04 06:07:44;;;;;;;3.03;1.77;;;20.00;42.80;;;;;;5013459;28;20042;-58
2022/03/04 06:10:09;;;;;;;2.92;1.67;;;20.00;42.80;;;;;;5013438;28;20514;-58
2022/03/04 06:12:35;;;;;;;3.72;1.48;;;20.00;42.90;;;;;;5014255;28;20060;-58
2022/03/04 06:15:00;;;;;;;2.33;1.55;;;20.00;42.90;;;;;;5013575;28;20386;-58
2022/03/04 06:17:26;;;;;;;3.35;1.80;;;20.00;42.90;;;;;;5013860;28;20092;-58
2022/03/04 06:19:52;;;;;;;2.85;1.52;;;20.00;42.90;;;;;;5014235;28;20041;-58
2022/03/04 06:22:21;;;;;;;2.70;1.65;;;20.00;42.90;;;;;;5013128;28;20096;-58
2022/03/04 06:24:46;;;;;;;3.05;1.50;;;20.00;42.90;;;;;;5014011;28;20123;-58
2022/03/04 06:27:12;;;;;;;3.72;1.83;;;20.00;42.90;;;;;;5013473;28;20049;-58
2022/03/04 06:29:37;;;;;;;3.28;1.77;;;20.00;42.90;;;;;;5013133;28;20049;-58
2022/03/04 06:32:03;;;;;;;2.72;1.42;;;20.00;42.80;;;;;;5013969;28;20050;-58
2022/03/04 06:34:29;;;;;;;3.20;1.67;;;20.00;42.90;;;;;;5013802;28;20048;-58
2022/03/04 06:36:54;;;;;;;3.35;1.70;;;20.10;42.90;;;;;;5013193;28;20046;-58
2022/03/04 06:39:20;;;;;;;3.78;1.65;;;20.10;42.90;;;;;;5011972;28;20096;-58
2022/03/04 06:41:45;;;;;;;2.92;1.58;;;20.10;42.90;;;;;;5013094;28;20104;-58
2022/03/04 06:44:11;;;;;;;3.10;1.77;;;20.00;42.80;;;;;;5013118;28;20052;-58
2022/03/04 06:46:36;;;;;;;2.15;1.60;;;20.10;42.80;;;;;;5013502;28;20046;-58
2022/03/04 06:49:02;;;;;;;2.45;1.58;;;20.10;42.80;;;;;;5012397;28;20117;-58
2022/03/04 06:51:28;;;;;;;2.55;1.45;;;20.10;42.80;;;;;;5013708;28;20100;-58
2022/03/04 06:53:53;;;;;;;3.08;1.65;;;20.10;42.90;;;;;;5013521;28;20050;-58
2022/03/04 06:56:19;;;;;;;2.35;1.50;;;20.10;42.90;;;;;;5012174;28;20045;-58
2022/03/04 06:58:45;;;;;;;2.45;1.60;;;20.10;42.90;;;;;;5013408;28;20498;-57
2022/03/04 07:01:10;;;;;;;2.50;1.52;;;20.10;42.90;;;;;;5012850;28;20045;-58
2022/03/04 07:03:36;;;;;;;2.97;1.70;;;20.10;42.80;;;;;;5012681;28;20057;-58
2022/03/04 07:06:02;;;;;;;3.95;1.90;;;20.10;42.80;;;;;;5013230;28;20145;-57
2022/03/04 07:08:28;;;;;;;2.22;1.42;;;20.10;42.80;;;;;;5012769;28;20084;-58
2022/03/04 07:10:54;;;;;;;3.10;1.70;;;20.10;42.80;;;;;;5012749;28;20484;-58
2022/03/04 07:13:21;;;;;;;2.50;1.50;;;20.10;43.50;;;;;;5012890;28;20042;-58
2022/03/04 07:15:48;;;;;;;;;;;20.10;42.80;;;;;;5012609;28;20050;-57
2022/03/04 07:18:13;;;;;;;2.30;1.33;;;20.10;42.90;;;;;;5012051;28;19925;-58
2022/03/04 07:20:40;;;;;;;2.83;1.77;;;20.10;42.80;;;;;;5013073;28;20050;-58
2022/03/04 07:23:06;;;;;;;5.38;1.80;;;20.10;42.80;;;;;;5012451;28;20042;-58
2022/03/04 07:25:31;;;;;;;3.45;1.67;;;20.10;42.80;;;;;;5011830;28;20038;-58
2022/03/04 07:27:57;;;;;;;3.78;1.92;;;20.10;42.40;;;;;;5012529;28;20108;-59
2022/03/04 07:30:22;;;;;;;3.30;2.17;;;20.10;42.20;;;;;;5012505;28;20045;-58
2022/03/04 07:32:49;;;;;;;3.00;1.75;;;20.10;42.20;;;;;;5012304;28;20053;-58
2022/03/04 07:35:14;;;;;;;5.10;2.00;;;20.10;42.20;;;;;;5012989;28;20052;-60
2022/03/04 07:37:40;;;;;;;4.68;1.50;;;20.10;42.20;;;;;;5012705;28;20054;-59
2022/03/04 07:40:07;;;;;;;4.10;2.05;;;20.10;42.20;;;;;;5011950;28;20046;-59
2022/03/04 07:42:32;;;;;;;3.75;2.00;;;20.10;42.20;;;;;;5012725;28;20045;-58
2022/03/04 07:44:58;;;;;;;3.78;1.92;;;20.20;42.30;;;;;;5011849;28;20041;-58
2022/03/04 07:47:24;;;;;;;3.45;1.88;;;20.10;42.20;;;;;;5011667;28;20049;-59
2022/03/04 07:49:50;;;;;;;3.63;1.88;;;20.10;42.20;;;;;;5011563;28;20053;-58
2022/03/04 07:52:15;;;;;;;4.13;1.83;;;20.20;42.30;;;;;;5011463;28;20045;-58
2022/03/04 07:54:41;;;;;;;4.28;1.88;;;20.20;42.30;;;;;;5012700;28;20046;-58
2022/03/04 07:57:06;;;;;;;3.97;2.05;;;20.20;42.30;;;;;;5016333;28;20044;-58
2022/03/04 07:59:32;;;;;;;3.88;1.77;;;20.20;42.40;;;;;;5014661;28;20433;-58
2022/03/04 08:01:57;;;;;;;3.55;2.00;;;20.20;42.40;;;;;;5016565;28;20536;-58
2022/03/04 08:04:23;;;;;;;4.88;2.15;;;20.10;42.30;;;;;;5005006;28;20046;-58
2022/03/04 08:06:49;;;;;;;3.15;1.67;;;20.20;42.30;;;;;;4995615;28;20100;-59
2022/03/04 08:09:14;;;;;;;4.45;2.00;;;20.20;42.40;;;;;;4996364;28;20082;-58
2022/03/04 08:11:40;;;;;;;5.07;1.65;;;20.20;42.40;;;;;;5005865;28;20053;-57
2022/03/04 08:14:05;;;;;;;4.78;2.20;;;20.20;42.60;;;;;;5014095;28;20069;-60
2022/03/04 08:16:31;;;;;;;3.22;1.60;;;20.20;42.70;;;;;;5015854;28;20042;-58
2022/03/04 08:18:58;;;;;;;4.53;1.88;;;20.30;42.80;;;;;;5009825;28;20096;-58
2022/03/04 08:21:24;;;;;;;5.30;1.90;;;20.30;42.90;;;;;;5014910;28;20053;-58
2022/03/04 08:23:49;;;;;;;4.05;1.98;;;20.20;43.00;;;;;;5014600;28;20437;-57
2022/03/04 08:26:15;;;;;;;4.47;2.22;;;20.30;43.00;;;;;;5013261;28;20073;-58
2022/03/04 08:28:40;;;;;;;3.88;1.90;;;20.30;43.10;;;;;;5015134;28;20161;-58
2022/03/04 08:31:11;;;;;;;4.95;2.15;;;20.30;43.10;;;;;;5015687;28;20401;-58
2022/03/04 08:33:37;;;;;;;7.88;2.25;;;20.30;43.20;;;;;;5016071;28;20057;-57
2022/03/04 08:36:04;;;;;;;4.68;2.30;;;20.30;43.30;;;;;;5014153;28;20045;-58
2022/03/04 08:38:30;;;;;;;5.03;2.00;;;20.30;43.20;;;;;;5015342;28;20060;-58
2022/03/04 08:40:55;;;;;;;14.13;2.30;;;20.30;43.20;;;;;;5015192;28;20046;-58
2022/03/04 08:43:21;;;;;;;3.53;2.00;;;20.30;43.20;;;;;;5013083;28;20045;-58
2022/03/04 08:45:46;;;;;;;4.43;1.83;;;20.30;43.20;;;;;;5015802;28;20041;-58
2022/03/04 08:48:12;;;;;;;4.15;2.03;;;20.30;43.20;;;;;;5015440;28;20045;-59
2022/03/04 08:50:38;;;;;;;4.13;2.25;;;20.40;43.30;;;;;;5014805;28;20045;-57
2022/03/04 08:53:04;;;;;;;5.78;2.17;;;20.30;43.40;;;;;;5015209;28;20099;-58
2022/03/04 08:55:30;;;;;;;5.25;2.30;;;20.40;43.30;;;;;;5014150;28;20091;-58
2022/03/04 08:57:56;;;;;;;4.20;2.10;;;20.40;43.30;;;;;;5015468;28;20045;-58
2022/03/04 09:00:22;;;;;;;5.38;2.63;;;20.40;43.30;;;;;;5015166;28;20038;-57
2022/03/04 09:02:47;;;;;;;6.70;2.63;;;20.40;43.30;;;;;;5013410;28;20041;-58
2022/03/04 09:05:13;;;;;;;4.78;2.20;;;20.40;43.30;;;;;;5015012;28;20061;-58
2022/03/04 09:07:38;;;;;;;4.53;2.10;;;20.40;43.50;;;;;;5013979;28;20042;-58
2022/03/04 09:10:05;;;;;;;4.70;2.10;;;20.50;43.60;;;;;;5014027;28;20407;-57
2022/03/04 09:12:31;;;;;;;3.58;1.90;;;20.40;43.70;;;;;;5015197;28;20409;-58
2022/03/04 09:14:56;;;;;;;4.70;2.00;;;20.40;43.70;;;;;;5013841;28;20493;-57
2022/03/04 09:17:22;;;;;;;4.47;2.00;;;20.50;43.80;;;;;;5014134;28;20576;-58
2022/03/04 09:19:48;;;;;;;4.47;2.20;;;20.50;43.90;;;;;;5014975;28;20046;-58
2022/03/04 09:22:13;;;;;;;3.83;2.10;;;20.50;44.00;;;;;;5015098;28;20129;-57
2022/03/04 09:24:39;;;;;;;4.60;2.10;;;20.50;43.90;;;;;;5013544;28;20042;-58
2022/03/04 09:27:06;;;;;;;4.80;2.20;;;20.50;44.00;;;;;;5014763;28;20517;-58
2022/03/04 09:29:32;;;;;;;5.83;2.20;;;20.50;44.00;;;;;;5014864;28;20481;-58
2022/03/04 09:31:58;;;;;;;5.45;2.60;;;20.60;44.00;;;;;;5014084;28;20332;-58
2022/03/04 09:34:24;;;;;;;6.10;2.33;;;20.60;44.00;;;;;;5014786;28;20124;-58
2022/03/04 09:36:50;;;;;;;4.43;2.30;;;20.60;43.80;;;;;;5015040;28;20457;-58
2022/03/04 09:39:15;;;;;;;5.95;2.97;;;20.60;43.60;;;;;;5014018;28;20046;-58
2022/03/04 09:41:43;;;;;;;5.20;2.58;;;20.60;43.60;;;;;;5014703;28;20089;-58
2022/03/04 09:44:08;;;;;;;4.55;2.83;;;20.60;43.50;;;;;;5013057;28;20406;-59
2022/03/04 09:46:34;;;;;;;6.55;2.70;;;20.60;43.30;;;;;;4996430;28;20490;-59
2022/03/04 09:48:59;;;;;;;4.93;2.75;;;20.60;43.40;;;;;;5014829;28;20080;-59
2022/03/04 09:51:25;;;;;;;6.43;2.80;;;20.60;43.30;;;;;;5014450;28;20045;-58
2022/03/04 09:53:52;;;;;;;5.75;2.63;;;20.70;44.10;;;;;;5013886;28;20038;-58
2022/03/04 09:56:19;;;;;;;6.30;2.95;;;20.70;43.50;;;;;;5014528;28;20056;-57
2022/03/04 09:58:45;;;;;;;3.83;2.30;;;20.70;43.50;;;;;;5013654;28;20042;-57
2022/03/04 10:01:11;;;;;;;5.88;2.80;;;20.70;43.50;;;;;;5014159;28;20512;-58
2022/03/04 10:03:44;;;;;;;5.38;2.70;;;20.70;43.50;;;;;;5014630;28;20057;-58
2022/03/04 10:06:09;;;;;;;4.97;2.50;;;20.80;43.50;;;;;;5013438;28;20042;-58
2022/03/04 10:08:38;;;;;;;6.20;2.88;;;20.80;43.50;;;;;;5014168;28;20064;-58
2022/03/04 10:11:04;;;;;;;4.78;2.83;;;20.80;43.50;;;;;;5013874;28;20048;-58
2022/03/04 10:13:47;;;;;;;4.78;2.80;;;20.80;43.50;;;;;;5013432;28;20128;-58
2022/03/04 10:16:22;;;;;;;4.35;2.60;;;20.80;43.40;;;;;;5013831;28;20041;-58
2022/03/04 10:19:13;;;;;;;5.63;2.58;;;20.80;43.40;;;;;;5014021;28;20038;-58
2022/03/04 10:21:57;;;;;;;3.83;2.65;;;20.80;43.40;;;;;;5013506;28;20042;-60
2022/03/04 10:24:36;;;;;;;4.53;3.00;;;20.80;43.40;;;;;;5012863;28;20062;-59
2022/03/04 10:27:09;;;;;;;5.47;3.15;;;20.80;43.30;;;;;;5013255;28;20045;-58
2022/03/04 10:29:39;;;;;;;4.10;2.88;;;20.90;43.30;;;;;;5014021;28;20042;-59
2022/03/04 10:32:09;;;;;;;5.07;3.03;;;20.90;43.40;;;;;;5013677;28;20045;-59
2022/03/04 10:34:54;;;;;;;4.82;3.17;;;20.90;43.40;;;;;;5013252;28;20090;-58
2022/03/04 10:37:42;;;;;;;6.47;3.10;;;20.90;43.50;;;;;;5013665;28;20038;-58
2022/03/04 10:40:15;;;;;;;5.65;3.00;;;20.90;43.50;;;;;;5013726;28;20049;-58
2022/03/04 10:42:43;;;;;;;5.32;2.90;;;20.90;43.60;;;;;;5013098;28;20045;-58
2022/03/04 10:45:14;;;;;;;4.88;2.88;;;20.90;43.70;;;;;;5013420;28;20041;-58
2022/03/04 10:47:45;;;;;;;6.43;2.90;;;20.90;43.60;;;;;;5013476;28;20100;-58
2022/03/04 10:50:12;;;;;;;5.13;2.75;;;20.90;43.70;;;;;;5012816;28;20042;-58
2022/03/04 10:52:48;;;;;;;5.88;3.00;;;20.90;43.70;;;;;;5009705;28;20129;-58
2022/03/04 10:55:13;;;;;;;6.05;2.65;;;20.90;43.70;;;;;;5010605;28;20775;-58
2022/03/04 10:57:42;;;;;;;4.85;2.90;;;21.00;43.70;;;;;;5001184;28;20470;-58
2022/03/04 11:00:08;;;;;;;5.10;3.10;;;21.00;43.60;;;;;;5026049;28;20049;-58
2022/03/04 11:02:43;;;;;;;4.93;2.95;;;21.00;43.70;;;;;;5010404;28;20036;-58
2022/03/04 11:05:08;;;;;;;4.95;3.20;;;21.00;43.70;;;;;;5008390;28;20042;-59
2022/03/04 11:07:36;;;;;;;6.18;3.00;;;21.00;43.70;;;;;;5000864;28;20379;-59
2022/03/04 11:10:02;;;;;;;4.32;2.75;;;21.00;43.70;;;;;;5009467;28;20145;-58
2022/03/04 11:12:28;;;;;;;5.47;2.80;;;21.00;43.70;;;;;;5010942;28;20046;-58
2022/03/04 11:14:53;;;;;;;5.75;2.90;;;21.00;43.70;;;;;;5010122;28;20529;-58
2022/03/04 11:17:19;;;;;;;3.72;2.42;;;21.00;43.80;;;;;;5008968;28;20049;-58
2022/03/04 11:19:45;;;;;;;5.78;2.72;;;21.00;43.80;;;;;;5001948;28;20038;-58
2022/03/04 11:22:11;;;;;;;4.88;3.10;;;21.00;43.70;;;;;;5001221;28;20042;-59
2022/03/04 11:24:39;;;;;;;4.15;2.60;;;21.00;43.70;;;;;;4992500;28;20501;-58
2022/03/04 11:27:05;;;;;;;4.88;2.78;;;21.00;43.60;;;;;;4991935;28;20054;-59
2022/03/04 11:29:34;;;;;;;5.53;3.10;;;21.00;43.50;;;;;;4994057;28;20482;-59
2022/03/04 11:32:01;;;;;;;4.95;2.60;;;21.00;43.50;;;;;;5002488;28;20088;-58
2022/03/04 11:34:34;;;;;;;5.28;2.92;;;21.10;43.50;;;;;;5011436;28;20046;-59
2022/03/04 11:37:03;;;;;;;4.65;2.67;;;21.10;43.40;;;;;;5011129;28;20436;-59
2022/03/04 11:39:29;;;;;;;4.65;2.80;;;21.10;43.30;;;;;;5010015;28;20829;-59
2022/03/04 11:41:54;;;;;;;4.22;2.33;;;21.10;43.30;;;;;;4992713;28;20047;-59
2022/03/04 11:44:22;;;;;;;5.60;2.60;;;21.10;43.30;;;;;;4992121;28;20380;-59
2022/03/04 11:46:55;;;;;;;6.82;2.67;;;21.10;43.40;;;;;;5001355;28;20437;-59
2022/03/04 11:49:48;;;;;;;4.45;2.90;;;21.10;43.40;;;;;;4998461;28;20046;-59
2022/03/04 11:52:36;;;;;;;3.78;2.33;;;21.10;43.40;;;;;;4992600;28;20053;-59
2022/03/04 11:55:09;;;;;;;3.92;2.53;;;21.10;43.40;;;;;;4993160;28;20089;-59
2022/03/04 11:57:44;;;;;;;4.72;2.67;;;21.10;43.30;;;;;;4993026;28;20061;-59
2022/03/04 12:00:10;;;;;;;4.93;3.10;;;21.10;43.30;;;;;;4991542;28;20053;-59
2022/03/04 12:02:43;;;;;;;4.47;2.80;;;21.10;43.30;;;;;;4993091;28;20042;-59
2022/03/04 12:05:14;;;;;;;4.18;2.60;;;21.10;43.20;;;;;;5009736;28;20452;-59
2022/03/04 12:07:44;;;;;;;6.03;2.90;;;21.10;43.00;;;;;;5012064;28;20494;-59
2022/03/04 12:10:31;;;;;;;4.88;2.90;;;21.10;42.90;;;;;;5011998;28;20057;-59
2022/03/04 12:13:04;;;;;;;4.32;2.53;;;21.20;42.90;;;;;;5009574;28;20054;-59
2022/03/04 12:15:37;;;;;;;5.25;2.83;;;21.10;42.90;;;;;;5012499;28;20074;-59
2022/03/04 12:18:28;;;;;;;4.22;2.70;;;21.20;43.00;;;;;;5012515;28;20453;-59
2022/03/04 12:20:56;;;;;;;5.30;2.83;;;21.20;43.10;;;;;;5011861;28;20046;-59
2022/03/04 12:23:36;;;;;;;5.10;2.72;;;21.20;42.90;;;;;;5011837;28;20068;-59
2022/03/04 12:26:02;;;;;;;6.40;3.28;;;21.20;43.00;;;;;;5012231;28;20045;-59
2022/03/04 12:28:36;;;;;;;6.47;3.00;;;21.20;42.90;;;;;;5011231;28;20485;-59
2022/03/04 12:31:01;;;;;;;6.97;2.83;;;21.20;42.90;;;;;;5012679;28;20096;-59
2022/03/04 12:33:27;;;;;;;4.82;2.70;;;21.20;43.00;;;;;;5011340;28;20046;-59
2022/03/04 12:35:57;;;;;;;5.82;2.95;;;21.30;43.10;;;;;;5012549;28;20038;-59
2022/03/04 12:38:26;;;;;;;4.43;2.35;;;21.20;43.10;;;;;;5011686;28;20074;-59
2022/03/04 12:40:55;;;;;;;6.35;2.72;;;21.30;43.10;;;;;;5009231;28;20037;-60
2022/03/04 12:43:20;;;;;;;5.47;2.83;;;21.30;43.10;;;;;;5014972;28;20041;-59
2022/03/04 12:45:46;;;;;;;5.65;3.00;;;21.30;43.10;;;;;;5015813;28;20050;-59